Time;durP1;ratioP1;P1;durP2;ratioP2;P2;SDS_P1;SDS_P2;PMS_P1;PMS_P2;Temp;Humidity;BMP_temperature;BMP_pressure;BME280_temperature;BME280_humidity;BME280_pressure;Samples;Min_cycle;Max_cycle;Signal;HPM_P1;HPM_P2
2021/12/24 00:01:58;;;;;;;51.30;26.80;;;;;;;0.82;43.16;94037.13;5026195;28;20045;-77
2021/12/24 00:04:24;;;;;;;57.97;28.95;;;;;;;0.85;43.24;94041.06;5025804;28;20404;-77
2021/12/24 00:06:51;;;;;;;50.28;26.50;;;;;;;1.01;42.91;94032.34;5027693;28;20467;-77
2021/12/24 00:09:26;;;;;;;52.70;30.52;;;;;;;1.00;43.00;94036.00;5029578;28;20493;-77
2021/12/24 00:11:57;;;;;;;59.50;30.23;;;;;;;1.05;42.83;94033.41;5014193;28;20040;-77
2021/12/24 00:14:25;;;;;;;55.65;27.98;;;;;;;1.05;43.00;94036.03;5024489;28;20128;-78
2021/12/24 00:16:54;;;;;;;54.08;29.77;;;;;;;1.05;43.10;94020.31;5027049;28;20357;-77
2021/12/24 00:37:54;;;;;;;52.78;28.35;;;;;;;1.11;43.45;94045.53;5024428;28;20072;-78
2021/12/24 00:40:20;;;;;;;58.63;28.98;;;;;;;0.91;43.32;94032.25;5025228;28;20116;-76
2021/12/24 00:42:54;;;;;;;59.63;30.67;;;;;;;1.06;43.40;94037.63;5028715;28;20050;-77
2021/12/24 00:45:27;;;;;;;60.10;30.00;;;;;;;1.13;43.20;94028.50;5026978;28;20064;-77
2021/12/24 00:47:54;;;;;;;53.05;25.25;;;;;;;1.21;43.07;94025.44;5026848;28;20029;-78
2021/12/24 00:50:25;;;;;;;43.58;22.05;;;;;;;1.13;42.93;94009.41;5023563;28;20037;-77
2021/12/24 00:55:22;;;;;;;35.97;19.27;;;;;;;0.82;42.28;93995.25;5029254;28;20037;-78
2021/12/24 00:57:51;;;;;;;40.60;23.90;;;;;;;0.93;42.52;93983.84;5021133;28;20103;-77
2021/12/24 01:00:24;;;;;;;47.65;23.67;;;;;;;1.16;42.69;94006.28;5027528;28;20048;-78
2021/12/24 01:02:52;;;;;;;59.55;28.92;;;;;;;0.69;43.00;93956.38;5027539;28;20025;-77
2021/12/24 01:05:19;;;;;;;45.92;26.25;;;;;;;0.75;43.17;93979.72;5027073;28;20132;-77
2021/12/24 01:07:46;;;;;;;60.42;30.15;;;;;;;0.30;44.06;94000.22;5029206;28;20045;-78
2021/12/24 01:10:14;;;;;;;69.05;32.88;;;;;;;0.52;44.00;93972.19;5006822;28;20524;-78
2021/12/24 01:12:40;;;;;;;77.30;29.88;;;;;;;0.71;43.65;93980.47;5025400;28;20392;-78
2021/12/24 01:15:07;;;;;;;69.82;30.40;;;;;;;0.90;43.29;93999.22;5031821;28;20631;-77
2021/12/24 01:17:39;;;;;;;58.35;30.45;;;;;;;0.95;43.06;93980.94;5033705;28;20388;-76
2021/12/24 01:20:16;;;;;;;46.97;21.88;;;;;;;1.05;42.64;93991.50;5028395;28;20069;-77
2021/12/24 01:25:22;;;;;;;44.28;21.15;;;;;;;0.76;43.18;93986.53;5026269;28;20041;-78
2021/12/24 01:38:13;;;;;;;16.85;10.88;;;;;;;0.86;41.67;93967.53;5028093;28;20273;-77
2021/12/24 01:40:52;;;;;;;18.92;11.48;;;;;;;0.74;41.97;93938.88;5028588;28;20041;-78
2021/12/24 01:43:22;;;;;;;17.98;9.90;;;;;;;0.91;41.86;93964.16;5029587;28;20041;-77
2021/12/24 01:45:50;;;;;;;21.55;11.23;;;;;;;0.88;41.94;93952.38;5020062;28;20029;-77
2021/12/24 01:48:16;;;;;;;15.60;9.40;;;;;;;1.01;41.61;93956.38;5029606;28;20495;-77
2021/12/24 01:50:42;;;;;;;18.23;9.43;;;;;;;0.94;41.34;93969.69;5026939;28;20032;-78
2021/12/24 01:53:09;;;;;;;28.10;13.90;;;;;;;0.91;41.16;93962.34;5030451;28;20037;-78
2021/12/24 01:55:36;;;;;;;45.90;19.27;;;;;;;-0.18;43.66;93961.69;5030374;28;22201;-77
2021/12/24 01:58:02;;;;;;;45.92;21.83;;;;;;;0.21;43.81;93949.34;5029282;28;20033;-78
2021/12/24 02:00:50;;;;;;;47.03;20.70;;;;;;;0.52;43.45;93966.94;5028738;28;20114;-77
2021/12/24 02:03:18;;;;;;;43.58;21.38;;;;;;;0.43;43.24;93963.19;5015823;28;20028;-78
2021/12/24 02:05:46;;;;;;;48.10;20.95;;;;;;;0.47;43.17;93934.69;5012395;28;20014;-78
2021/12/24 02:08:12;;;;;;;41.83;21.23;;;;;;;0.42;43.10;93924.97;5027023;28;20046;-77
2021/12/24 02:10:39;;;;;;;40.40;19.05;;;;;;;0.68;42.72;93945.13;5028376;28;20729;-78
2021/12/24 02:13:04;;;;;;;32.83;17.38;;;;;;;0.62;42.67;93933.00;5017573;28;20040;-78
2021/12/24 02:28:38;;;;;;;21.75;10.45;;;;;;;0.67;42.42;93917.34;5029522;28;20051;-77
2021/12/24 02:31:09;;;;;;;12.77;8.20;;;;;;;0.58;42.11;93900.53;5027723;28;20033;-79
2021/12/24 02:33:34;;;;;;;13.98;8.40;;;;;;;0.43;42.03;93863.75;5029292;28;20204;-77
2021/12/24 02:36:00;;;;;;;17.52;10.35;;;;;;;0.62;42.20;93885.91;5028639;28;21218;-78
2021/12/24 02:38:26;;;;;;;20.38;9.95;;;;;;;-0.01;43.22;93891.84;5032721;28;20036;-77
2021/12/24 02:40:51;;;;;;;19.98;12.55;;;;;;;0.33;43.22;93879.38;5028885;28;20041;-77
2021/12/24 02:43:20;;;;;;;23.45;13.05;;;;;;;0.50;42.96;93866.94;5027751;28;20461;-77
2021/12/24 02:45:48;;;;;;;21.55;11.02;;;;;;;0.25;43.00;93874.59;5017050;28;20124;-78
2021/12/24 02:56:18;;;;;;;22.70;11.40;;;;;;;-0.01;43.73;93862.28;5028828;28;20043;-76
2021/12/24 02:58:47;;;;;;;23.88;14.18;;;;;;;-0.20;43.86;93875.69;5025984;28;20029;-77
2021/12/24 03:01:19;;;;;;;27.77;13.02;;;;;;;-0.44;44.03;93819.50;5029332;28;20064;-77
2021/12/24 03:03:48;;;;;;;24.05;13.55;;;;;;;-0.12;43.81;93856.94;5027220;28;20376;-77
2021/12/24 03:06:34;;;;;;;22.95;14.07;;;;;;;-0.57;44.86;93849.38;5017874;28;20043;-77
2021/12/24 03:09:01;;;;;;;21.60;12.32;;;;;;;-0.24;44.24;93871.19;5026943;28;20139;-77
2021/12/24 03:11:26;;;;;;;27.83;13.18;;;;;;;-0.63;44.63;93803.31;5026107;28;20021;-77
2021/12/24 03:13:53;;;;;;;28.25;14.32;;;;;;;-0.26;44.02;93850.53;5029352;28;21000;-78
2021/12/24 03:16:20;;;;;;;21.75;13.25;;;;;;;-0.48;44.37;93826.22;5026452;28;20099;-77
2021/12/24 03:18:46;;;;;;;23.05;13.05;;;;;;;-0.83;44.73;93844.09;5027292;28;20079;-77
2021/12/24 03:26:34;;;;;;;25.02;14.13;;;;;;;-1.02;45.86;93852.16;5031069;28;20459;-77
2021/12/24 03:28:59;;;;;;;20.10;11.63;;;;;;;-1.23;45.63;93824.22;5027118;28;20037;-78
2021/12/24 03:31:25;;;;;;;25.73;12.73;;;;;;;-0.90;45.32;93840.84;5029994;28;20570;-78
2021/12/24 03:33:53;;;;;;;26.20;13.80;;;;;;;-0.64;45.16;93845.38;5027837;28;20052;-77
2021/12/24 03:36:20;;;;;;;26.08;14.23;;;;;;;-0.99;44.98;93851.72;5031419;28;20033;-77
2021/12/24 03:38:46;;;;;;;25.45;13.85;;;;;;;-0.99;45.52;93867.38;5027569;28;20027;-78
2021/12/24 03:41:11;;;;;;;23.90;12.27;;;;;;;-1.22;45.51;93793.72;5030327;28;20033;-78
2021/12/24 03:43:37;;;;;;;27.52;13.82;;;;;;;-0.69;44.93;93850.53;5027801;28;20136;-77
2021/12/24 03:46:07;;;;;;;25.67;13.45;;;;;;;-0.80;45.48;93833.16;5030014;28;20129;-78
2021/12/24 03:51:26;;;;;;;24.08;9.32;;;;;;;-0.53;44.67;93840.00;5028069;28;20021;-77
2021/12/24 03:56:36;;;;;;;11.52;7.15;;;;;;;-0.49;44.54;93814.22;5025404;28;20051;-77
2021/12/24 03:59:04;;;;;;;13.27;7.75;;;;;;;-0.56;44.59;93816.19;5027011;28;20033;-77
2021/12/24 04:01:30;;;;;;;14.02;7.78;;;;;;;-0.70;44.71;93813.19;5022784;28;20820;-77
2021/12/24 04:03:55;;;;;;;37.47;13.27;;;;;;;-0.84;44.99;93782.44;5043016;28;20041;-78
2021/12/24 04:06:21;;;;;;;38.35;16.80;;;;;;;-0.70;44.99;93791.50;5028215;28;20041;-78
2021/12/24 04:08:46;;;;;;;22.20;11.77;;;;;;;-0.54;44.77;93811.53;5027411;28;20571;-77
2021/12/24 04:11:11;;;;;;;17.38;8.93;;;;;;;-0.48;44.61;93830.69;5028453;28;20589;-77
2021/12/24 04:13:38;;;;;;;14.70;8.82;;;;;;;-0.31;43.99;93834.78;5028656;28;20328;-77
2021/12/24 04:16:04;;;;;;;12.27;7.93;;;;;;;-0.30;43.99;93822.50;5023356;28;20033;-77
2021/12/24 04:26:30;;;;;;;57.70;25.50;;;;;;;-0.99;45.10;93812.56;4987891;28;20405;-77
2021/12/24 04:28:56;;;;;;;54.95;25.45;;;;;;;-1.06;45.17;93780.59;5025277;28;20045;-78
2021/12/24 04:31:28;;;;;;;39.80;21.15;;;;;;;-1.13;45.62;93837.41;5027133;28;20049;-77
2021/12/24 04:33:58;;;;;;;36.25;17.73;;;;;;;-1.42;46.16;93791.59;5025782;28;20060;-77
2021/12/24 05:03:13;;;;;;;20.30;12.47;;;;;;;-1.25;46.51;93836.72;5025620;28;20483;-78
2021/12/24 05:05:49;;;;;;;23.23;12.93;;;;;;;-1.42;46.51;93809.84;5026213;28;20577;-77
2021/12/24 05:08:27;;;;;;;20.42;11.88;;;;;;;-1.26;47.04;93835.13;5026181;28;20049;-76
2021/12/24 05:10:54;;;;;;;25.08;14.50;;;;;;;-1.13;46.58;93834.81;5029864;28;20051;-76
2021/12/24 05:13:22;;;;;;;24.58;13.85;;;;;;;-1.07;46.31;93825.22;5044772;28;20042;-76
2021/12/24 05:15:51;;;;;;;23.88;13.50;;;;;;;-0.98;46.14;93836.84;5029038;28;20042;-76
2021/12/24 05:23:26;;;;;;;27.73;12.57;;;;;;;-1.95;47.45;93803.28;5024841;28;20087;-76
2021/12/24 05:25:52;;;;;;;19.83;11.93;;;;;;;-1.97;47.97;93802.75;5025390;28;20504;-75
2021/12/24 05:28:19;;;;;;;18.00;12.65;;;;;;;-1.73;47.43;93819.03;5026457;28;20068;-76
2021/12/24 05:30:44;;;;;;;32.28;13.65;;;;;;;-2.46;49.05;93830.25;5028723;28;20045;-75
2021/12/24 05:33:15;;;;;;;29.88;14.20;;;;;;;-2.19;49.15;93799.22;5023385;28;20284;-76
2021/12/24 05:35:43;;;;;;;29.30;12.95;;;;;;;-2.38;49.19;93792.63;5028980;28;20022;-75
2021/12/24 05:38:08;;;;;;;25.85;14.02;;;;;;;-1.65;48.81;93830.88;5027911;28;20034;-76
2021/12/24 05:40:34;;;;;;;41.13;15.68;;;;;;;-1.36;47.65;93834.97;5027135;28;20037;-76
2021/12/24 05:42:59;;;;;;;19.92;11.23;;;;;;;-1.67;47.17;93806.88;5026098;28;20119;-76
2021/12/24 05:45:25;;;;;;;21.92;11.25;;;;;;;-2.19;47.37;93775.78;5028910;28;20056;-77
2021/12/24 05:47:51;;;;;;;22.13;11.27;;;;;;;-2.14;47.92;93788.88;5029383;28;20037;-76
2021/12/24 05:50:17;;;;;;;20.58;11.02;;;;;;;-1.79;47.84;93811.34;5028459;28;20037;-76
2021/12/24 05:52:42;;;;;;;16.70;10.20;;;;;;;-1.97;47.89;93763.66;5024990;28;20091;-76
2021/12/24 05:55:09;;;;;;;14.55;9.80;;;;;;;-1.52;47.65;93787.03;5027933;28;20124;-76
2021/12/24 05:57:35;;;;;;;21.42;10.32;;;;;;;-1.83;47.82;93817.06;5025040;28;20108;-77
2021/12/24 06:00:06;;;;;;;19.42;10.48;;;;;;;-1.93;48.18;93783.00;5030460;28;20040;-75
2021/12/24 06:02:32;;;;;;;24.05;11.07;;;;;;;-1.74;47.67;93756.69;5030206;28;20041;-76
2021/12/24 06:04:58;;;;;;;16.23;9.88;;;;;;;-1.77;47.72;93784.03;5030093;28;20037;-76
2021/12/24 06:07:23;;;;;;;17.95;10.15;;;;;;;-2.37;48.86;93781.19;5032138;28;20048;-76
2021/12/24 06:09:49;;;;;;;19.67;9.55;;;;;;;-2.24;49.22;93780.13;5027122;28;20047;-76
2021/12/24 06:12:14;;;;;;;16.80;9.23;;;;;;;-2.13;48.89;93787.06;5029229;28;20024;-76
2021/12/24 06:14:41;;;;;;;22.13;11.30;;;;;;;-1.87;48.88;93802.91;5026884;28;20018;-76
2021/12/24 06:17:13;;;;;;;23.55;11.75;;;;;;;-1.29;47.97;93814.75;5013557;28;20692;-76
2021/12/24 06:19:39;;;;;;;17.33;10.50;;;;;;;-1.91;48.63;93793.97;5012622;28;20194;-75
2021/12/24 06:22:04;;;;;;;17.45;9.45;;;;;;;-1.73;48.55;93807.81;5032811;28;20037;-76
2021/12/24 06:24:30;;;;;;;13.65;7.95;;;;;;;-1.62;48.58;93783.47;5027859;28;20623;-76
2021/12/24 06:26:55;;;;;;;18.90;10.27;;;;;;;-1.60;48.30;93821.31;5017993;28;20585;-74
2021/12/24 06:29:21;;;;;;;20.70;8.70;;;;;;;-2.17;48.99;93810.22;5027553;28;20033;-75
2021/12/24 06:31:47;;;;;;;23.63;12.85;;;;;;;-2.11;49.35;93850.19;5031566;28;20044;-74
2021/12/24 06:34:12;;;;;;;11.57;8.90;;;;;;;-1.83;48.96;93811.03;5023981;28;20037;-75
2021/12/24 06:36:42;;;;;;;17.85;9.07;;;;;;;-1.55;48.88;93836.25;5030451;28;20039;-74
2021/12/24 06:39:07;;;;;;;26.40;10.90;;;;;;;-1.22;48.34;93872.00;5032015;28;20040;-74
2021/12/24 06:41:33;;;;;;;22.45;11.13;;;;;;;-1.40;48.55;93852.13;5025796;28;20021;-75
2021/12/24 06:43:58;;;;;;;21.35;13.20;;;;;;;-1.23;48.74;93834.66;5027944;28;20163;-74
2021/12/24 06:46:24;;;;;;;19.45;10.88;;;;;;;-1.69;48.88;93851.41;5030105;28;20056;-75
2021/12/24 06:48:56;;;;;;;25.67;11.65;;;;;;;-1.59;49.13;93866.44;5028703;28;20045;-74
2021/12/24 06:51:22;;;;;;;17.10;9.40;;;;;;;-2.13;50.76;93818.34;5028340;28;20033;-74
2021/12/24 06:53:47;;;;;;;21.23;11.48;;;;;;;-2.25;50.58;93815.81;5029897;28;20071;-74
2021/12/24 06:56:12;;;;;;;20.20;11.07;;;;;;;-2.00;50.85;93829.28;5011280;28;20037;-74
2021/12/24 06:58:38;;;;;;;18.15;11.10;;;;;;;-1.78;50.93;93842.41;5028947;28;20180;-74
2021/12/24 07:01:04;;;;;;;15.15;9.77;;;;;;;-2.41;51.70;93822.53;5029434;28;20452;-74
2021/12/24 07:03:29;;;;;;;22.27;14.40;;;;;;;-3.17;53.43;93821.00;5031729;28;20506;-74
2021/12/24 07:05:55;;;;;;;19.98;11.07;;;;;;;-3.13;53.28;93803.97;5025432;28;20040;-74
2021/12/24 07:08:20;;;;;;;18.83;10.45;;;;;;;-2.60;53.05;93808.13;5028677;28;20160;-75
2021/12/24 07:10:46;;;;;;;24.67;10.90;;;;;;;-2.69;52.81;93817.31;5026964;28;20091;-74
2021/12/24 07:13:11;;;;;;;18.75;10.70;;;;;;;-2.62;52.80;93793.75;5027286;28;20032;-74
2021/12/24 07:15:36;;;;;;;24.10;11.40;;;;;;;-2.03;52.04;93834.94;5029127;28;20025;-74
2021/12/24 07:18:02;;;;;;;19.90;12.13;;;;;;;-2.17;51.94;93812.81;5029390;28;20025;-75
2021/12/24 07:20:27;;;;;;;22.02;10.88;;;;;;;-2.13;51.79;93824.34;5026774;28;20028;-75
2021/12/24 07:22:53;;;;;;;13.85;10.45;;;;;;;-2.11;51.69;93798.84;5028988;28;20508;-74
2021/12/24 07:25:18;;;;;;;16.33;10.30;;;;;;;-1.99;52.08;93810.00;5025016;28;20099;-75
2021/12/24 07:27:44;;;;;;;19.60;10.13;;;;;;;-1.29;51.15;93817.34;5027694;28;20452;-75
2021/12/24 07:30:11;;;;;;;20.02;12.00;;;;;;;-1.40;50.68;93832.06;5028632;28;20547;-75
2021/12/24 07:32:40;;;;;;;23.00;12.20;;;;;;;-1.39;50.59;93798.94;5030861;28;20020;-75
2021/12/24 07:35:07;;;;;;;22.20;11.00;;;;;;;-0.67;49.74;93845.84;5020236;28;20151;-73
2021/12/24 07:37:32;;;;;;;23.08;12.20;;;;;;;-0.38;48.71;93815.88;5011866;28;20029;-75
2021/12/24 07:39:57;;;;;;;20.92;12.93;;;;;;;-0.19;48.55;93832.81;5025799;28;21296;-75
2021/12/24 07:42:24;;;;;;;25.23;13.90;;;;;;;-0.52;48.58;93825.13;5016457;28;20481;-74
2021/12/24 07:44:50;;;;;;;30.35;15.10;;;;;;;-0.51;48.79;93800.59;5016140;28;20057;-75
2021/12/24 07:47:26;;;;;;;32.70;15.65;;;;;;;-0.93;49.87;93825.66;5025605;28;20508;-74
2021/12/24 07:50:00;;;;;;;30.55;13.13;;;;;;;-1.34;50.52;93811.25;5026864;28;20033;-75
2021/12/24 07:52:25;;;;;;;34.35;15.32;;;;;;;-1.62;50.62;93805.13;5029035;28;20552;-74
2021/12/24 07:54:54;;;;;;;23.23;12.88;;;;;;;-1.85;50.19;93800.06;5027461;28;20044;-74
2021/12/24 07:57:20;;;;;;;22.67;12.18;;;;;;;-1.21;50.04;93824.75;5029814;28;20029;-75
2021/12/24 07:59:46;;;;;;;25.02;11.07;;;;;;;-0.74;49.02;93816.50;5024632;28;20049;-75
2021/12/24 08:02:15;;;;;;;20.95;12.02;;;;;;;-1.07;48.85;93838.28;5028627;28;20163;-75
2021/12/24 08:04:41;;;;;;;16.40;10.00;;;;;;;-1.40;49.13;93815.63;5025361;28;20033;-74
2021/12/24 08:07:07;;;;;;;18.17;9.82;;;;;;;-1.19;49.03;93832.34;5028042;28;20218;-74
2021/12/24 08:09:36;;;;;;;17.30;9.35;;;;;;;-1.09;48.99;93825.47;5022597;28;20045;-75
2021/12/24 08:12:03;;;;;;;15.57;9.93;;;;;;;-1.71;49.42;93826.63;5012783;28;20033;-73
2021/12/24 08:14:28;;;;;;;15.75;9.90;;;;;;;-2.02;50.86;93797.44;5026575;28;20064;-74
2021/12/24 08:16:54;;;;;;;15.65;8.70;;;;;;;-1.74;50.63;93816.66;5029894;28;20132;-75
2021/12/24 08:19:19;;;;;;;11.80;8.35;;;;;;;-1.80;50.76;93817.63;5006275;28;20045;-74
2021/12/24 08:21:45;;;;;;;14.82;9.85;;;;;;;-2.19;51.71;93814.09;5030121;28;20040;-74
2021/12/24 08:24:12;;;;;;;18.30;9.52;;;;;;;-1.83;51.09;93843.13;5012967;28;20107;-75
2021/12/24 08:26:37;;;;;;;15.48;9.68;;;;;;;-2.09;51.65;93804.59;5024427;28;20519;-75
2021/12/24 08:29:03;;;;;;;20.23;9.25;;;;;;;-2.14;51.64;93814.94;5025912;28;20042;-75
2021/12/24 08:31:29;;;;;;;16.23;9.90;;;;;;;-1.93;51.26;93809.06;5027999;28;20678;-74
2021/12/24 08:33:54;;;;;;;18.88;9.23;;;;;;;-1.75;50.67;93748.06;5022878;28;20590;-73
2021/12/24 08:36:20;;;;;;;15.88;8.60;;;;;;;-1.45;50.37;93768.56;5023497;28;20485;-74
2021/12/24 08:38:45;;;;;;;16.83;8.23;;;;;;;-1.04;50.23;93791.59;5028066;28;20055;-74
2021/12/24 08:41:11;;;;;;;11.35;8.48;;;;;;;-1.40;49.61;93750.41;5025319;28;20033;-74
2021/12/24 08:43:36;;;;;;;17.70;8.80;;;;;;;-1.73;50.17;93758.25;5015770;28;20508;-75
2021/12/24 08:46:02;;;;;;;14.82;7.85;;;;;;;-1.24;49.75;93739.13;5025028;28;20043;-75
2021/12/24 08:48:27;;;;;;;15.95;8.75;;;;;;;-1.44;49.57;93796.25;5023275;28;20549;-76
2021/12/24 08:50:53;;;;;;;14.13;8.98;;;;;;;-1.75;50.22;93765.56;5029152;28;20529;-76
2021/12/24 08:53:20;;;;;;;12.93;9.23;;;;;;;-1.63;50.43;93793.09;5014934;28;20043;-76
2021/12/24 08:55:46;;;;;;;12.13;8.35;;;;;;;-1.76;50.95;93790.03;5009417;28;20409;-76
2021/12/24 08:58:11;;;;;;;16.40;9.85;;;;;;;-1.50;50.29;93797.19;5028720;28;20048;-76
2021/12/24 09:00:37;;;;;;;17.27;8.27;;;;;;;-1.39;50.25;93783.28;5027382;28;20040;-77
2021/12/24 09:03:03;;;;;;;11.85;7.45;;;;;;;-1.19;49.39;93770.53;5010125;28;20029;-75
2021/12/24 09:05:30;;;;;;;17.58;9.43;;;;;;;-0.65;49.92;93794.16;5024827;28;20017;-77
2021/12/24 09:07:55;;;;;;;12.68;8.07;;;;;;;-0.85;49.17;93778.25;5027921;28;20050;-77
2021/12/24 09:10:20;;;;;;;16.48;9.07;;;;;;;-1.00;49.14;93777.03;5024817;28;20396;-76
2021/12/24 09:12:47;;;;;;;15.07;8.00;;;;;;;-1.03;49.61;93787.97;5027645;28;20076;-76
2021/12/24 09:15:15;;;;;;;23.35;8.52;;;;;;;-1.04;50.00;93775.94;5026470;28;20477;-76
2021/12/24 09:17:46;;;;;;;21.58;10.50;;;;;;;-0.90;50.03;93770.34;5029207;28;20539;-76
2021/12/24 09:20:27;;;;;;;18.77;10.95;;;;;;;-0.59;49.54;93746.97;5023027;28;20040;-77
2021/12/24 09:22:55;;;;;;;24.45;11.80;;;;;;;-0.41;49.18;93758.91;5006181;28;20496;-74
2021/12/24 09:25:22;;;;;;;27.08;13.32;;;;;;;-0.62;49.71;93778.00;5008655;28;20033;-76
2021/12/24 09:27:48;;;;;;;23.17;11.40;;;;;;;-0.81;50.09;93759.25;5021922;28;20052;-75
2021/12/24 09:30:13;;;;;;;17.27;10.82;;;;;;;-0.71;50.44;93755.94;5026787;28;20530;-75
2021/12/24 09:32:39;;;;;;;23.05;11.48;;;;;;;-0.71;50.52;93764.56;5029220;28;20029;-75
2021/12/24 09:35:05;;;;;;;25.13;13.60;;;;;;;-0.91;50.76;93740.03;5007699;28;20090;-75
2021/12/24 09:37:30;;;;;;;23.77;12.63;;;;;;;-0.74;50.70;93740.78;5029453;28;20036;-75
2021/12/24 09:39:56;;;;;;;14.77;10.05;;;;;;;-0.59;50.64;93754.00;5027689;28;21519;-75
2021/12/24 09:42:24;;;;;;;21.83;10.80;;;;;;;-0.29;50.41;93745.69;5029285;28;20102;-75
2021/12/24 09:44:49;;;;;;;25.10;13.57;;;;;;;-0.06;49.43;93698.31;5031189;28;20032;-75
2021/12/24 09:47:15;;;;;;;19.92;10.57;;;;;;;0.29;48.67;93706.44;5031257;28;20037;-76
2021/12/24 09:49:40;;;;;;;23.20;11.02;;;;;;;-0.13;48.99;93677.59;5030107;28;20037;-75
2021/12/24 09:52:06;;;;;;;16.33;10.02;;;;;;;0.12;48.78;93715.44;5030975;28;20277;-75
2021/12/24 09:54:31;;;;;;;16.15;9.73;;;;;;;-0.08;49.81;93724.69;5031129;28;20548;-75
2021/12/24 09:56:58;;;;;;;22.50;11.35;;;;;;;-0.07;49.99;93726.28;5029582;28;20028;-75
2021/12/24 09:59:25;;;;;;;15.88;9.45;;;;;;;0.25;49.60;93720.25;5028380;28;20041;-75
2021/12/24 10:01:58;;;;;;;24.30;11.02;;;;;;;0.03;49.77;93706.47;5009850;28;20041;-76
2021/12/24 10:04:26;;;;;;;19.45;10.98;;;;;;;0.17;49.92;93713.66;5018988;28;20581;-75
2021/12/24 10:06:56;;;;;;;19.45;10.25;;;;;;;0.01;50.74;93721.66;5030600;28;20148;-75
2021/12/24 10:09:32;;;;;;;23.98;10.68;;;;;;;0.20;50.40;93683.59;5030305;28;20441;-75
2021/12/24 10:12:10;;;;;;;16.10;9.52;;;;;;;0.43;50.24;93693.69;5028960;28;20028;-74
2021/12/24 10:14:42;;;;;;;19.90;10.32;;;;;;;0.49;49.59;93676.97;5030572;28;20041;-75
2021/12/24 10:17:29;;;;;;;18.30;10.68;;;;;;;0.19;49.69;93654.03;5031092;28;20516;-75
2021/12/24 10:19:58;;;;;;;23.27;9.43;;;;;;;0.35;50.24;93686.28;5025148;28;20047;-74
2021/12/24 10:22:24;;;;;;;22.70;10.30;;;;;;;0.51;49.85;93677.50;5028669;28;20584;-75
2021/12/24 10:25:12;;;;;;;17.55;11.05;;;;;;;0.47;50.10;93692.13;5029863;28;20056;-75
2021/12/24 10:27:38;;;;;;;20.60;10.57;;;;;;;0.46;50.21;93680.09;5027797;28;20115;-76
2021/12/24 10:30:16;;;;;;;17.45;9.82;;;;;;;0.56;50.24;93659.22;5031599;28;20091;-74
2021/12/24 10:32:42;;;;;;;19.95;11.13;;;;;;;0.65;49.51;93641.97;5030415;28;20110;-75
2021/12/24 10:35:30;;;;;;;18.05;9.25;;;;;;;1.05;48.98;93656.25;5028759;28;20445;-75
2021/12/24 10:38:08;;;;;;;15.25;9.00;;;;;;;1.11;48.89;93660.47;5028403;28;20041;-75
2021/12/24 10:40:33;;;;;;;16.27;9.15;;;;;;;0.70;48.79;93592.25;5009734;28;20052;-76
2021/12/24 10:42:59;;;;;;;20.88;9.30;;;;;;;1.15;48.53;93630.09;5026307;28;20501;-76
2021/12/24 10:45:24;;;;;;;15.07;9.65;;;;;;;1.42;48.08;93625.44;5030273;28;20033;-76
2021/12/24 10:47:50;;;;;;;22.60;11.25;;;;;;;1.41;48.30;93609.97;5030436;28;20026;-76
2021/12/24 10:50:32;;;;;;;17.00;9.60;;;;;;;1.55;47.99;93634.63;5030306;28;20050;-76
2021/12/24 10:55:51;;;;;;;20.67;11.82;;;;;;;0.92;49.43;93609.63;5030829;28;20037;-76
2021/12/24 10:58:22;;;;;;;20.42;10.70;;;;;;;1.17;49.29;93617.53;5011758;28;20029;-76
2021/12/24 11:00:52;;;;;;;18.80;9.35;;;;;;;1.17;48.54;93576.41;5011860;28;20447;-76
2021/12/24 11:03:22;;;;;;;20.50;10.23;;;;;;;1.03;49.41;93611.22;5015939;28;21071;-76
2021/12/24 11:05:53;;;;;;;15.73;9.10;;;;;;;1.09;49.19;93544.69;5028620;28;20488;-75
2021/12/24 11:08:21;;;;;;;19.20;10.43;;;;;;;1.53;49.00;93613.91;5030980;28;20080;-75
2021/12/24 11:10:56;;;;;;;21.02;11.15;;;;;;;1.38;48.56;93556.25;5030047;28;20311;-76
2021/12/24 11:13:29;;;;;;;20.75;9.98;;;;;;;1.84;48.36;93601.59;5030637;28;20084;-76
2021/12/24 11:15:56;;;;;;;16.92;9.43;;;;;;;2.11;47.86;93592.69;5028021;28;20543;-75
2021/12/24 11:18:23;;;;;;;18.33;9.95;;;;;;;2.38;47.51;93590.50;5027989;28;20063;-76
2021/12/24 11:21:12;;;;;;;20.13;10.00;;;;;;;1.98;47.82;93544.94;5028423;28;20021;-76
2021/12/24 11:23:40;;;;;;;20.70;12.65;;;;;;;2.56;47.39;93573.38;5025618;28;20551;-76
2021/12/24 11:26:19;;;;;;;21.45;10.30;;;;;;;2.61;47.79;93553.13;5027865;28;20469;-75
2021/12/24 11:28:45;;;;;;;8.13;5.55;;;;;;;3.22;49.16;93576.47;5026743;28;20304;-75
2021/12/24 11:31:17;;;;;;;1.90;1.70;;;;;;;3.41;49.62;93501.16;5028421;28;20060;-76
2021/12/24 11:33:44;;;;;;;2.45;1.88;;;;;;;4.24;48.51;93530.59;5026563;28;20047;-76
2021/12/24 11:36:13;;;;;;;1.50;1.40;;;;;;;4.36;47.57;93500.47;5027110;28;20507;-76
2021/12/24 11:38:44;;;;;;;2.08;1.77;;;;;;;4.65;47.32;93522.22;5031122;28;20069;-76
2021/12/24 11:41:13;;;;;;;1.40;1.30;;;;;;;4.93;46.92;93528.47;5025447;28;20099;-75
2021/12/24 11:43:44;;;;;;;2.35;1.67;;;;;;;5.06;46.71;93538.31;5030055;28;20082;-76
2021/12/24 11:46:12;;;;;;;3.70;1.83;;;;;;;5.19;46.68;93529.69;5029256;28;20125;-76
2021/12/24 11:48:38;;;;;;;2.10;1.90;;;;;;;5.33;45.95;93516.56;5015725;28;20245;-76
2021/12/24 11:51:08;;;;;;;5.28;1.75;;;;;;;5.56;45.28;93532.28;5014171;28;20020;-76
2021/12/24 11:53:34;;;;;;;2.08;1.55;;;;;;;5.53;44.96;93526.78;5012086;28;20430;-75
2021/12/24 11:56:07;;;;;;;2.00;1.90;;;;;;;5.52;45.30;93515.47;5027195;28;20044;-76
2021/12/24 11:58:40;;;;;;;3.70;2.92;;;;;;;5.57;44.56;93517.25;5027074;28;20036;-76
2021/12/24 12:01:06;;;;;;;2.72;2.53;;;;;;;5.55;44.87;93503.56;5028068;28;20055;-76
2021/12/24 12:03:41;;;;;;;3.65;3.25;;;;;;;5.49;44.59;93484.38;5029331;28;20557;-75
2021/12/24 12:06:11;;;;;;;2.97;2.03;;;;;;;5.77;44.36;93524.06;5028530;28;20267;-76
2021/12/24 12:08:41;;;;;;;3.30;2.30;;;;;;;5.58;44.36;93477.38;5023812;28;20428;-76
2021/12/24 12:11:16;;;;;;;5.03;2.17;;;;;;;5.85;44.16;93503.06;5027334;28;20045;-76
2021/12/24 12:13:56;;;;;;;3.40;2.00;;;;;;;6.15;43.81;93532.63;5023977;28;20037;-76
2021/12/24 12:16:51;;;;;;;4.68;2.55;;;;;;;6.05;43.76;93538.09;5028974;28;20034;-76
2021/12/24 12:19:31;;;;;;;7.65;2.30;;;;;;;6.06;43.88;93519.31;5022780;28;20033;-76
2021/12/24 12:22:56;;;;;;;5.43;2.38;;;;;;;6.21;43.70;93523.56;5025861;28;20060;-76
2021/12/24 12:25:30;;;;;;;5.82;2.95;;;;;;;6.17;43.62;93498.81;5023812;28;20041;-76
2021/12/24 12:27:58;;;;;;;3.60;2.03;;;;;;;6.22;43.51;93498.72;5026526;28;20036;-76
2021/12/24 12:30:50;;;;;;;3.28;2.42;;;;;;;6.36;43.56;93518.00;5024192;28;20036;-76
2021/12/24 12:33:17;;;;;;;2.80;1.92;;;;;;;6.25;43.38;93484.94;5027699;28;20052;-76
2021/12/24 12:35:56;;;;;;;3.40;2.15;;;;;;;6.38;43.12;93498.13;5028924;28;20104;-76
2021/12/24 12:38:30;;;;;;;4.78;2.80;;;;;;;6.50;43.07;93502.94;5025449;28;20094;-76
2021/12/24 12:41:20;;;;;;;3.83;2.60;;;;;;;6.55;42.81;93494.91;5029913;28;20045;-76
2021/12/24 12:43:48;;;;;;;3.85;2.15;;;;;;;6.61;42.69;93493.69;5029331;28;20182;-76
2021/12/24 12:46:26;;;;;;;2.92;2.28;;;;;;;6.57;43.16;93482.16;5010857;28;20038;-76
2021/12/24 12:48:54;;;;;;;2.65;1.77;;;;;;;6.57;42.73;93476.88;5024201;28;20048;-76
2021/12/24 12:51:21;;;;;;;2.88;2.00;;;;;;;6.41;42.83;93451.84;5023363;28;20463;-76
2021/12/24 12:53:48;;;;;;;2.92;2.33;;;;;;;6.61;42.86;93462.00;5023219;28;20013;-76
2021/12/24 12:56:16;;;;;;;3.40;2.25;;;;;;;6.92;42.52;93479.84;5030020;28;20047;-76
2021/12/24 12:58:47;;;;;;;2.40;1.95;;;;;;;6.97;42.22;93482.38;5022887;28;20049;-76
2021/12/24 13:01:17;;;;;;;2.38;1.90;;;;;;;7.06;42.28;93470.03;5029431;28;20041;-77
2021/12/24 13:03:55;;;;;;;3.10;2.60;;;;;;;7.17;41.81;93464.22;5024555;28;20060;-76
2021/12/24 13:06:24;;;;;;;3.92;1.90;;;;;;;7.17;41.88;93484.59;5011524;28;20057;-76
2021/12/24 13:08:50;;;;;;;2.92;2.10;;;;;;;7.21;41.70;93474.97;5027562;28;20033;-76
2021/12/24 13:11:18;;;;;;;3.38;2.75;;;;;;;6.89;41.58;93420.44;5029721;28;20099;-76
2021/12/24 13:13:53;;;;;;;3.25;2.15;;;;;;;7.10;41.60;93469.13;5008395;28;20121;-77
2021/12/24 13:16:24;;;;;;;2.75;2.47;;;;;;;6.76;41.96;93447.69;5013171;28;20071;-76
2021/12/24 13:18:59;;;;;;;3.45;1.52;;;;;;;6.70;42.44;93470.03;5025169;28;20572;-76
2021/12/24 13:24:26;;;;;;;5.20;1.98;;;;;;;6.66;42.65;93461.88;4969869;28;20113;-76